createdAt,value
2019-04-29T00:02:28.816Z,73.98
2019-04-29T00:04:58.524Z,73.89
2019-04-29T00:07:28.340Z,73.75
2019-04-29T00:09:58.346Z,73.87
2019-04-29T00:12:29.496Z,73.81
2019-04-29T00:15:03.587Z,73.96
2019-04-29T00:17:34.961Z,73.93
2019-04-29T00:20:11.226Z,74.00
2019-04-29T00:22:40.862Z,73.88
2019-04-29T00:25:11.089Z,73.96
2019-04-29T00:27:40.826Z,74.13
2019-04-29T00:30:12.193Z,74.24
2019-04-29T00:32:41.776Z,74.21
2019-04-29T00:35:12.986Z,74.14
2019-04-29T00:37:45.062Z,74.26
2019-04-29T00:40:32.231Z,74.40
2019-04-29T00:43:19.389Z,74.46
2019-04-29T00:45:49.305Z,74.69
2019-04-29T00:48:19.206Z,74.65
2019-04-29T00:50:48.818Z,74.34
2019-04-29T00:53:18.509Z,74.05
2019-04-29T00:55:49.764Z,74.01
2019-04-29T00:58:19.538Z,73.91
2019-04-29T01:00:49.361Z,73.88
2019-04-29T01:03:19.095Z,73.73
2019-04-29T01:05:48.784Z,74.03
2019-04-29T01:08:18.458Z,74.25
2019-04-29T01:10:48.107Z,74.41
2019-04-29T01:13:17.828Z,74.25
2019-04-29T01:15:47.580Z,74.22
2019-04-29T01:18:17.483Z,74.04
2019-04-29T01:20:47.198Z,73.98
2019-04-29T01:23:16.778Z,74.12
2019-04-29T01:25:48.020Z,74.13
2019-04-29T01:28:22.013Z,74.14
2019-04-29T01:31:04.840Z,74.03
2019-04-29T01:33:34.661Z,74.00
2019-04-29T01:36:16.040Z,74.29
2019-04-29T01:38:48.857Z,74.32
2019-04-29T01:41:29.474Z,74.75
2019-04-29T01:44:00.830Z,74.89
2019-04-29T01:46:31.085Z,74.78
2019-04-29T01:49:00.784Z,74.55
2019-04-29T01:51:30.488Z,74.46
2019-04-29T01:54:00.454Z,74.85
2019-04-29T01:56:30.191Z,75.17
2019-04-29T01:58:59.963Z,75.07
2019-04-29T02:01:29.631Z,74.94
2019-04-29T02:03:59.361Z,75.00
2019-04-29T02:06:29.044Z,74.67
2019-04-29T02:08:59.086Z,74.42
2019-04-29T02:11:28.708Z,74.40
2019-04-29T02:13:58.288Z,74.38
2019-04-29T02:16:28.028Z,74.32
2019-04-29T02:18:57.617Z,75.10
2019-04-29T02:21:27.197Z,75.01
2019-04-29T02:24:00.907Z,74.84
2019-04-29T02:26:30.768Z,74.73
2019-04-29T02:29:00.439Z,74.51
2019-04-29T02:31:40.358Z,74.44
2019-04-29T02:34:11.330Z,74.36
2019-04-29T02:36:41.330Z,74.47
2019-04-29T02:39:12.642Z,74.58
2019-04-29T02:41:44.026Z,74.52
2019-04-29T02:44:13.952Z,74.57
2019-04-29T02:46:43.760Z,74.77
2019-04-29T02:49:13.483Z,75.02
2019-04-29T02:51:53.339Z,75.04
2019-04-29T02:54:24.866Z,75.07
2019-04-29T02:57:02.112Z,74.96
2019-04-29T02:59:31.560Z,74.90
2019-04-29T03:02:03.959Z,74.78
2019-04-29T03:04:38.008Z,74.54
2019-04-29T03:07:07.839Z,74.45
2019-04-29T03:09:46.612Z,74.39
2019-04-29T03:12:16.339Z,74.39
2019-04-29T03:14:45.967Z,74.28
2019-04-29T03:17:18.826Z,74.20
2019-04-29T03:20:05.161Z,74.21
2019-04-29T03:22:35.327Z,74.06
2019-04-29T03:25:06.381Z,73.95
2019-04-29T03:27:36.140Z,73.64
2019-04-29T03:30:08.802Z,73.65
2019-04-29T03:32:38.432Z,73.84
2019-04-29T03:35:08.931Z,73.80
2019-04-29T03:37:38.575Z,73.25
2019-04-29T03:40:08.391Z,73.05
2019-04-29T03:42:38.056Z,72.31
2019-04-29T03:45:09.047Z,72.16
2019-04-29T03:47:38.743Z,71.81
2019-04-29T03:50:08.572Z,72.05
2019-04-29T03:52:38.290Z,72.64
2019-04-29T03:55:08.599Z,72.62
2019-04-29T03:57:38.910Z,73.06
2019-04-29T04:00:12.632Z,73.53
2019-04-29T04:02:42.507Z,74.42
2019-04-29T04:05:17.093Z,74.83
2019-04-29T04:07:55.981Z,75.28
2019-04-29T04:10:25.805Z,75.28
2019-04-29T04:12:55.541Z,75.06
2019-04-29T04:15:25.544Z,75.29
2019-04-29T04:18:13.093Z,75.09
2019-04-29T04:20:43.079Z,75.04
2019-04-29T04:23:13.042Z,75.18
2019-04-29T04:25:43.041Z,75.22
2019-04-29T04:28:13.045Z,74.89
2019-04-29T04:30:43.134Z,74.98
2019-04-29T04:33:13.336Z,75.15
2019-04-29T04:35:43.410Z,74.64
2019-04-29T04:38:13.389Z,74.74
2019-04-29T04:40:45.090Z,75.16
2019-04-29T04:43:15.069Z,74.84
2019-04-29T04:45:45.290Z,74.78
2019-04-29T04:48:15.349Z,74.43
2019-04-29T04:50:45.426Z,74.14
2019-04-29T04:53:15.448Z,74.41
2019-04-29T04:55:47.010Z,74.59
2019-04-29T04:58:17.082Z,74.68
2019-04-29T05:00:47.357Z,74.74
2019-04-29T05:03:17.288Z,74.84
2019-04-29T05:05:47.211Z,74.97
2019-04-29T05:08:17.184Z,74.85
2019-04-29T05:10:47.320Z,74.88
2019-04-29T05:13:28.027Z,74.42
2019-04-29T05:15:49.401Z,73.62
2019-04-29T05:18:19.600Z,73.76
2019-04-29T05:20:49.682Z,73.83
2019-04-29T05:23:19.933Z,73.56
2019-04-29T05:25:49.980Z,73.82
2019-04-29T05:28:20.122Z,73.92
2019-04-29T05:30:50.222Z,73.74
2019-04-29T05:33:20.669Z,73.49
2019-04-29T05:36:03.496Z,73.29
2019-04-29T05:38:40.674Z,73.55
2019-04-29T05:41:11.014Z,73.35
2019-04-29T05:43:59.311Z,72.84
2019-04-29T05:46:43.490Z,72.98
2019-04-29T05:49:15.354Z,72.70
2019-04-29T05:51:53.034Z,72.97
2019-04-29T05:54:26.906Z,72.66
2019-04-29T05:56:56.651Z,72.99
2019-04-29T05:59:27.198Z,72.98
2019-04-29T06:01:57.753Z,73.04
2019-04-29T06:04:28.702Z,72.90
2019-04-29T06:06:59.063Z,72.77
2019-04-29T06:09:28.921Z,72.90
2019-04-29T06:11:58.870Z,72.99
2019-04-29T06:14:28.831Z,72.89
2019-04-29T06:17:02.829Z,73.26
2019-04-29T06:19:30.495Z,73.04
2019-04-29T06:22:00.331Z,73.45
2019-04-29T06:24:30.209Z,73.07
2019-04-29T06:27:00.033Z,73.00
2019-04-29T06:29:30.203Z,73.36
2019-04-29T06:32:00.018Z,73.00
2019-04-29T06:34:29.909Z,73.50
2019-04-29T06:36:59.708Z,73.89
2019-04-29T06:39:29.643Z,73.15
2019-04-29T06:41:59.483Z,72.75
2019-04-29T06:44:29.383Z,72.97
2019-04-29T06:46:59.331Z,73.26
2019-04-29T06:49:29.176Z,73.29
2019-04-29T06:51:59.176Z,72.63
2019-04-29T06:54:29.182Z,73.19
2019-04-29T06:56:59.166Z,72.81
2019-04-29T06:59:29.564Z,72.27
2019-04-29T07:01:59.637Z,72.50
2019-04-29T07:04:30.723Z,72.42
2019-04-29T07:07:01.735Z,72.40
2019-04-29T07:09:31.780Z,72.09
2019-04-29T07:12:02.270Z,71.81
2019-04-29T07:14:35.950Z,71.67
2019-04-29T07:17:05.755Z,71.63
2019-04-29T07:19:35.770Z,71.66
2019-04-29T07:22:06.004Z,70.88
2019-04-29T07:24:36.536Z,71.47
2019-04-29T07:27:06.556Z,70.90
2019-04-29T07:29:38.124Z,70.52
2019-04-29T07:32:09.608Z,70.55
2019-04-29T07:35:15.986Z,70.22
2019-04-29T07:37:46.355Z,70.30
2019-04-29T07:40:17.901Z,70.31
2019-04-29T07:42:48.239Z,70.77
2019-04-29T07:45:18.886Z,70.45
2019-04-29T07:47:56.534Z,70.02
2019-04-29T07:50:26.843Z,69.58
2019-04-29T07:52:54.946Z,69.57
2019-04-29T07:55:25.906Z,69.57
2019-04-29T07:57:56.638Z,69.31
2019-04-29T08:00:35.392Z,69.31
2019-04-29T08:03:08.553Z,69.74
2019-04-29T08:05:39.170Z,69.56
2019-04-29T08:08:09.278Z,69.47
2019-04-29T08:10:52.517Z,68.92
2019-04-29T08:13:13.135Z,68.80
2019-04-29T08:15:43.636Z,67.91
2019-04-29T08:18:16.274Z,67.83
2019-04-29T08:20:46.198Z,67.71
2019-04-29T08:23:16.445Z,67.93
2019-04-29T08:25:46.790Z,67.91
2019-04-29T08:28:17.003Z,67.18
2019-04-29T08:30:47.440Z,66.87
2019-04-29T08:33:17.786Z,66.72
2019-04-29T08:35:48.118Z,66.25
2019-04-29T08:38:18.356Z,65.95
2019-04-29T08:40:49.926Z,65.20
2019-04-29T08:43:24.290Z,64.80
2019-04-29T08:46:01.823Z,65.43
2019-04-29T08:48:32.037Z,65.35
2019-04-29T08:51:02.463Z,65.14
2019-04-29T08:53:32.952Z,65.15
2019-04-29T08:56:05.612Z,64.51
2019-04-29T08:58:35.180Z,64.11
2019-04-29T09:01:05.496Z,64.18
2019-04-29T09:03:40.631Z,63.97
2019-04-29T09:06:07.760Z,64.37
2019-04-29T09:08:53.464Z,64.43
2019-04-29T09:11:13.033Z,63.81
2019-04-29T09:13:41.339Z,63.50
2019-04-29T09:16:11.399Z,63.56
2019-04-29T09:18:41.496Z,63.90
2019-04-29T09:21:11.970Z,63.22
2019-04-29T09:23:42.252Z,62.15
2019-04-29T09:26:19.835Z,61.82
2019-04-29T09:28:50.195Z,62.27
2019-04-29T09:31:20.760Z,62.22
2019-04-29T09:33:59.686Z,62.14
2019-04-29T09:36:22.936Z,61.11
2019-04-29T09:38:53.381Z,60.45
2019-04-29T09:41:23.368Z,60.15
2019-04-29T09:44:04.008Z,60.41
2019-04-29T09:46:36.167Z,60.63
2019-04-29T09:49:05.401Z,59.63
2019-04-29T09:51:35.749Z,59.77
2019-04-29T09:54:09.625Z,58.90
2019-04-29T09:56:37.918Z,57.78
2019-04-29T09:59:28.399Z,57.67
2019-04-29T10:02:16.440Z,57.19
2019-04-29T10:04:56.318Z,57.44
2019-04-29T10:07:20.136Z,56.61
2019-04-29T10:09:56.955Z,56.08
2019-04-29T10:12:22.317Z,55.44
2019-04-29T10:14:53.688Z,54.84
2019-04-29T10:17:23.681Z,53.57
2019-04-29T10:19:55.374Z,53.92
2019-04-29T10:22:25.606Z,54.11
2019-04-29T10:24:56.143Z,55.39
2019-04-29T10:27:26.295Z,53.93
2019-04-29T10:29:57.180Z,53.60
2019-04-29T10:32:27.766Z,52.74
2019-04-29T10:34:57.983Z,52.47
2019-04-29T10:37:31.412Z,52.32
2019-04-29T10:40:11.098Z,51.85
2019-04-29T10:42:36.051Z,50.51
2019-04-29T10:45:19.556Z,50.38
2019-04-29T10:47:49.658Z,50.50
2019-04-29T10:50:38.106Z,48.86
2019-04-29T10:53:11.137Z,47.56
2019-04-29T10:55:42.052Z,48.12
2019-04-29T10:58:13.202Z,47.24
2019-04-29T11:00:57.267Z,47.20
2019-04-29T11:03:27.151Z,46.93
2019-04-29T11:06:01.756Z,44.49
2019-04-29T11:08:38.032Z,44.74
2019-04-29T11:11:07.012Z,46.03
2019-04-29T11:13:45.965Z,46.21
2019-04-29T11:16:11.086Z,46.15
2019-04-29T11:18:41.551Z,44.79
2019-04-29T11:21:12.053Z,43.42
2019-04-29T11:23:43.786Z,43.52
2019-04-29T11:26:33.747Z,41.08
2019-04-29T11:29:06.274Z,41.82
2019-04-29T11:31:37.242Z,40.82
2019-04-29T11:34:15.962Z,39.99
2019-04-29T11:36:46.096Z,41.20
2019-04-29T11:39:17.559Z,39.67
2019-04-29T11:41:50.038Z,39.61
2019-04-29T11:44:21.846Z,39.79
2019-04-29T11:46:50.976Z,38.18
2019-04-29T11:49:22.888Z,37.95
2019-04-29T11:52:08.430Z,37.27
2019-04-29T11:54:25.080Z,37.96
2019-04-29T11:56:55.507Z,36.90
2019-04-29T11:59:44.977Z,36.19
2019-04-29T12:02:44.493Z,35.98
2019-04-29T12:05:08.760Z,35.05
2019-04-29T12:07:38.562Z,34.31
2019-04-29T12:10:09.478Z,35.03
2019-04-29T12:12:43.527Z,34.92
2019-04-29T12:15:13.606Z,34.06
2019-04-29T12:17:46.465Z,34.02
2019-04-29T12:20:27.835Z,34.02
2019-04-29T12:22:58.038Z,35.67
2019-04-29T12:25:29.335Z,35.97
2019-04-29T12:28:02.055Z,33.61
2019-04-29T12:30:34.602Z,34.13
2019-04-29T12:33:06.928Z,34.51
2019-04-29T12:35:51.763Z,34.50
2019-04-29T12:38:21.346Z,34.78
2019-04-29T12:41:19.696Z,34.96
2019-04-29T12:43:59.172Z,33.58
2019-04-29T12:46:40.427Z,33.08
2019-04-29T12:49:13.526Z,33.56
2019-04-29T12:51:41.729Z,34.14
2019-04-29T12:54:12.068Z,34.46
2019-04-29T12:56:43.088Z,33.71
2019-04-29T12:59:14.701Z,32.16
2019-04-29T13:02:03.932Z,33.74
2019-04-29T13:04:52.236Z,33.75
2019-04-29T13:07:33.564Z,33.50
2019-04-29T13:10:13.736Z,32.11
2019-04-29T13:12:44.685Z,32.13
2019-04-29T13:15:33.483Z,31.40
2019-04-29T13:18:13.028Z,30.33
2019-04-29T13:20:41.455Z,31.14
2019-04-29T13:23:17.673Z,30.01
2019-04-29T13:25:41.308Z,29.52
2019-04-29T13:28:11.657Z,30.83
2019-04-29T13:30:43.414Z,29.37
2019-04-29T13:33:22.503Z,28.97
2019-04-29T13:35:48.422Z,29.84
2019-04-29T13:38:17.675Z,30.30
2019-04-29T13:40:48.021Z,30.88
2019-04-29T13:43:20.697Z,30.41
2019-04-29T13:45:51.629Z,29.83
2019-04-29T13:48:54.319Z,30.49
2019-04-29T13:51:34.425Z,30.62
2019-04-29T13:53:49.814Z,30.60
2019-04-29T13:56:35.111Z,30.91
2019-04-29T13:58:51.822Z,31.53
2019-04-29T14:01:32.962Z,31.97
2019-04-29T14:04:07.518Z,31.45
2019-04-29T14:06:39.126Z,32.02
2019-04-29T14:09:10.604Z,32.17
2019-04-29T14:11:40.911Z,31.46
2019-04-29T14:14:11.365Z,31.05
2019-04-29T14:16:43.149Z,31.45
2019-04-29T14:19:13.398Z,31.91
2019-04-29T14:21:43.736Z,31.65
2019-04-29T14:24:14.107Z,32.02
2019-04-29T14:26:47.751Z,31.45
2019-04-29T14:29:15.452Z,30.82
2019-04-29T14:31:47.255Z,31.57
2019-04-29T14:34:21.840Z,31.33
2019-04-29T14:36:57.485Z,31.21
2019-04-29T14:39:36.620Z,30.97
2019-04-29T14:41:59.809Z,31.16
2019-04-29T14:44:46.824Z,31.39
2019-04-29T14:47:25.728Z,31.77
2019-04-29T14:50:00.720Z,31.19
2019-04-29T14:52:31.063Z,30.80
2019-04-29T14:55:01.314Z,31.42
2019-04-29T14:57:31.527Z,30.84
2019-04-29T15:00:01.822Z,30.78
2019-04-29T15:02:32.545Z,31.20
2019-04-29T15:05:07.063Z,31.34
2019-04-29T15:07:35.706Z,31.36
2019-04-29T15:10:11.195Z,31.33
2019-04-29T15:13:19.661Z,31.26
2019-04-29T15:15:36.026Z,31.59
2019-04-29T15:18:16.228Z,31.86
2019-04-29T15:20:56.211Z,32.20
2019-04-29T15:23:29.268Z,32.13
2019-04-29T15:25:56.805Z,32.25
2019-04-29T15:28:27.047Z,32.72
2019-04-29T15:30:57.286Z,32.28
2019-04-29T15:33:30.579Z,32.33
2019-04-29T15:35:59.829Z,32.77
2019-04-29T15:38:30.679Z,33.44
2019-04-29T15:41:00.976Z,32.83
2019-04-29T15:43:46.462Z,32.75
2019-04-29T15:46:06.713Z,34.11
2019-04-29T15:48:35.202Z,33.94
2019-04-29T15:51:09.211Z,34.06
2019-04-29T15:53:37.824Z,33.45
2019-04-29T15:56:27.194Z,33.53
2019-04-29T15:58:39.628Z,34.27
2019-04-29T16:01:16.859Z,33.68
2019-04-29T16:03:42.914Z,33.52
2019-04-29T16:06:27.009Z,34.23
2019-04-29T16:09:05.004Z,34.03
2019-04-29T16:11:34.949Z,33.67
2019-04-29T16:14:09.908Z,34.18
2019-04-29T16:16:39.224Z,33.95
2019-04-29T16:19:10.447Z,34.55
2019-04-29T16:21:41.826Z,34.79
2019-04-29T16:24:26.017Z,34.72
2019-04-29T16:26:44.141Z,35.54
2019-04-29T16:29:15.387Z,34.74
2019-04-29T16:31:45.994Z,34.33
2019-04-29T16:34:16.077Z,33.69
2019-04-29T16:36:49.893Z,33.94
2019-04-29T16:39:18.200Z,34.03
2019-04-29T16:41:58.043Z,34.26
2019-04-29T16:44:35.708Z,35.30
2019-04-29T16:46:59.770Z,34.55
2019-04-29T16:49:30.027Z,34.79
2019-04-29T16:52:00.330Z,34.80
2019-04-29T16:54:30.823Z,34.74
2019-04-29T16:57:01.153Z,34.69
2019-04-29T16:59:31.433Z,35.44
2019-04-29T17:02:01.845Z,35.17
2019-04-29T17:04:32.147Z,36.29
2019-04-29T17:07:12.412Z,35.91
2019-04-29T17:09:41.771Z,35.83
2019-04-29T17:12:11.944Z,36.09
2019-04-29T17:15:02.434Z,36.24
2019-04-29T17:17:28.539Z,36.61
2019-04-29T17:19:53.622Z,37.59
2019-04-29T17:22:26.082Z,37.60
2019-04-29T17:24:56.087Z,37.16
2019-04-29T17:27:28.798Z,38.06
2019-04-29T17:30:04.065Z,38.16
2019-04-29T17:32:48.473Z,38.18
2019-04-29T17:35:21.694Z,39.10
2019-04-29T17:37:49.552Z,39.89
2019-04-29T17:40:20.350Z,39.97
2019-04-29T17:42:52.352Z,40.50
2019-04-29T17:45:33.804Z,40.67
2019-04-29T17:48:05.539Z,40.92
2019-04-29T17:50:46.199Z,42.11
2019-04-29T17:53:15.208Z,42.29
2019-04-29T17:55:47.003Z,42.68
2019-04-29T17:58:35.867Z,42.74
2019-04-29T18:01:08.437Z,43.33
2019-04-29T18:03:42.715Z,42.15
2019-04-29T18:06:24.354Z,41.07
2019-04-29T18:08:55.023Z,41.07
2019-04-29T18:11:25.477Z,41.23
2019-04-29T18:13:56.950Z,41.49
2019-04-29T18:16:29.509Z,41.56
2019-04-29T18:19:05.539Z,41.13
2019-04-29T18:21:53.643Z,41.25
2019-04-29T18:24:25.431Z,42.38
2019-04-29T18:27:03.369Z,41.90
2019-04-29T18:29:36.340Z,42.40
2019-04-29T18:32:07.942Z,41.64
2019-04-29T18:34:38.131Z,41.81
2019-04-29T18:37:08.430Z,41.90
2019-04-29T18:39:38.656Z,41.40
2019-04-29T18:42:09.473Z,41.32
2019-04-29T18:44:42.036Z,41.50
2019-04-29T18:47:20.665Z,42.29
2019-04-29T18:49:43.221Z,42.73
2019-04-29T18:52:23.841Z,41.74
2019-04-29T18:54:45.314Z,41.62
2019-04-29T18:57:27.418Z,41.28
2019-04-29T18:59:47.443Z,41.75
2019-04-29T19:02:17.423Z,42.42
2019-04-29T19:04:56.452Z,41.94
2019-04-29T19:07:26.680Z,42.05
2019-04-29T19:09:56.517Z,42.45
2019-04-29T19:12:26.316Z,42.70
2019-04-29T19:15:04.422Z,42.94
2019-04-29T19:17:30.867Z,43.80
2019-04-29T19:20:01.947Z,43.36
2019-04-29T19:22:31.821Z,43.67
2019-04-29T19:25:01.408Z,43.73
2019-04-29T19:27:37.170Z,43.01
2019-04-29T19:30:03.073Z,43.01
2019-04-29T19:32:32.747Z,43.17
2019-04-29T19:35:02.570Z,42.60
2019-04-29T19:37:36.345Z,42.47
2019-04-29T19:40:04.878Z,42.61
2019-04-29T19:42:35.906Z,43.02
2019-04-29T19:45:13.159Z,43.51
2019-04-29T19:47:38.524Z,43.85
2019-04-29T19:50:10.470Z,43.20
2019-04-29T19:52:39.577Z,42.49
2019-04-29T19:55:09.336Z,41.93
2019-04-29T19:57:46.878Z,41.54
2019-04-29T20:00:11.296Z,41.29
2019-04-29T20:02:48.252Z,42.09
2019-04-29T20:05:16.477Z,41.74
2019-04-29T20:07:49.674Z,41.48
2019-04-29T20:10:18.846Z,41.46
2019-04-29T20:12:53.344Z,41.80
2019-04-29T20:15:21.109Z,42.40
2019-04-29T20:17:52.848Z,41.73
2019-04-29T20:20:25.351Z,41.87
2019-04-29T20:22:55.700Z,41.42
2019-04-29T20:25:32.347Z,42.11
2019-04-29T20:28:05.534Z,42.14
2019-04-29T20:30:28.916Z,41.93
2019-04-29T20:33:01.209Z,42.31
2019-04-29T20:35:30.330Z,42.04
2019-04-29T20:38:00.428Z,41.94
2019-04-29T20:40:35.297Z,41.79
2019-04-29T20:43:01.892Z,42.56
2019-04-29T20:45:31.657Z,43.17
2019-04-29T20:48:01.459Z,43.72
2019-04-29T20:50:31.340Z,44.04
2019-04-29T20:53:02.491Z,44.35
2019-04-29T20:55:36.663Z,44.70
2019-04-29T20:58:06.437Z,44.86
2019-04-29T21:00:37.003Z,45.03
2019-04-29T21:03:09.301Z,45.52
2019-04-29T21:05:47.391Z,45.59
2019-04-29T21:08:16.470Z,45.93
2019-04-29T21:10:42.926Z,46.22
2019-04-29T21:13:30.061Z,46.46
2019-04-29T21:16:07.032Z,46.85
2019-04-29T21:18:38.780Z,47.15
2019-04-29T21:21:08.287Z,47.40
2019-04-29T21:23:38.034Z,48.02
2019-04-29T21:26:08.792Z,47.99
2019-04-29T21:28:41.455Z,48.17
2019-04-29T21:31:11.763Z,48.00
2019-04-29T21:33:41.633Z,48.13
2019-04-29T21:36:12.877Z,48.33
2019-04-29T21:39:01.661Z,48.57
2019-04-29T21:41:39.276Z,48.66
2019-04-29T21:44:08.933Z,48.72
2019-04-29T21:46:38.781Z,48.44
2019-04-29T21:49:11.633Z,48.66
2019-04-29T21:51:41.834Z,48.41
2019-04-29T21:54:14.227Z,48.43
2019-04-29T21:56:46.471Z,48.54
2019-04-29T21:59:15.759Z,48.52
2019-04-29T22:01:46.654Z,48.60
2019-04-29T22:04:16.245Z,48.57
2019-04-29T22:06:47.510Z,48.65
2019-04-29T22:09:19.068Z,48.74
2019-04-29T22:11:48.945Z,48.82
2019-04-29T22:14:18.814Z,48.81
2019-04-29T22:16:53.650Z,48.67
2019-04-29T22:19:26.049Z,48.80
2019-04-29T22:21:52.785Z,49.03
2019-04-29T22:24:26.166Z,49.02
2019-04-29T22:26:56.403Z,48.98
2019-04-29T22:29:25.779Z,48.65
2019-04-29T22:31:55.970Z,48.97
2019-04-29T22:34:27.177Z,48.73
2019-04-29T22:36:58.352Z,48.85
2019-04-29T22:39:30.170Z,48.92
2019-04-29T22:42:02.427Z,48.65
2019-04-29T22:44:32.262Z,48.94
2019-04-29T22:47:01.956Z,48.92
2019-04-29T22:49:31.738Z,49.52
2019-04-29T22:52:01.483Z,49.62
2019-04-29T22:54:31.361Z,49.83
2019-04-29T22:57:01.213Z,49.90
2019-04-29T22:59:31.111Z,49.58
2019-04-29T23:02:00.942Z,49.53
2019-04-29T23:04:30.628Z,49.48
2019-04-29T23:07:00.243Z,49.43
2019-04-29T23:09:29.956Z,49.55
2019-04-29T23:12:01.347Z,49.28
2019-04-29T23:14:31.128Z,49.33
2019-04-29T23:17:00.943Z,49.23
2019-04-29T23:19:30.634Z,49.09
2019-04-29T23:22:16.892Z,49.07
2019-04-29T23:24:46.677Z,48.82
2019-04-29T23:27:19.499Z,49.04
2019-04-29T23:29:47.573Z,49.26
2019-04-29T23:32:17.313Z,49.54
2019-04-29T23:34:47.129Z,49.95
2019-04-29T23:37:19.540Z,49.49
2019-04-29T23:39:48.376Z,49.72
2019-04-29T23:42:18.145Z,49.89
2019-04-29T23:44:47.805Z,49.85
2019-04-29T23:47:17.842Z,49.91
2019-04-29T23:49:47.594Z,50.04
2019-04-29T23:52:17.969Z,50.20
2019-04-29T23:54:48.588Z,50.52
2019-04-29T23:57:23.655Z,50.63
